sensor_id;sensor_type;location;lat;lon;timestamp;P1;durP1;ratioP1;P2;durP2;ratioP2
6017;SDS011;3037;51.068;13.780;2023-05-29T00:00:42;7.17;;;5.47;;
6017;SDS011;3037;51.068;13.780;2023-05-29T00:03:07;5.77;;;4.93;;
6017;SDS011;3037;51.068;13.780;2023-05-29T00:05:34;7.63;;;5.30;;
6017;SDS011;3037;51.068;13.780;2023-05-29T00:08:00;9.90;;;5.07;;
6017;SDS011;3037;51.068;13.780;2023-05-29T00:10:25;7.13;;;4.50;;
6017;SDS011;3037;51.068;13.780;2023-05-29T00:12:51;14.77;;;5.63;;
6017;SDS011;3037;51.068;13.780;2023-05-29T00:15:17;6.50;;;5.87;;
6017;SDS011;3037;51.068;13.780;2023-05-29T00:17:42;10.33;;;5.73;;
6017;SDS011;3037;51.068;13.780;2023-05-29T00:20:08;18.07;;;6.73;;
6017;SDS011;3037;51.068;13.780;2023-05-29T00:22:35;8.03;;;5.80;;
6017;SDS011;3037;51.068;13.780;2023-05-29T00:25:02;7.13;;;6.37;;
6017;SDS011;3037;51.068;13.780;2023-05-29T00:27:32;14.53;;;5.47;;
6017;SDS011;3037;51.068;13.780;2023-05-29T00:29:58;7.10;;;4.80;;
6017;SDS011;3037;51.068;13.780;2023-05-29T00:32:24;7.13;;;4.87;;
6017;SDS011;3037;51.068;13.780;2023-05-29T00:34:50;6.23;;;5.10;;
6017;SDS011;3037;51.068;13.780;2023-05-29T00:37:16;9.23;;;4.70;;
6017;SDS011;3037;51.068;13.780;2023-05-29T00:39:42;8.77;;;6.43;;
6017;SDS011;3037;51.068;13.780;2023-05-29T00:42:07;6.90;;;5.30;;
6017;SDS011;3037;51.068;13.780;2023-05-29T00:44:33;8.10;;;4.93;;
6017;SDS011;3037;51.068;13.780;2023-05-29T00:46:58;7.17;;;5.90;;
6017;SDS011;3037;51.068;13.780;2023-05-29T00:49:24;10.40;;;5.23;;
6017;SDS011;3037;51.068;13.780;2023-05-29T00:51:51;6.40;;;5.10;;
6017;SDS011;3037;51.068;13.780;2023-05-29T00:54:20;7.70;;;4.90;;
6017;SDS011;3037;51.068;13.780;2023-05-29T00:56:48;10.10;;;5.80;;
6017;SDS011;3037;51.068;13.780;2023-05-29T00:59:14;5.30;;;4.50;;
6017;SDS011;3037;51.068;13.780;2023-05-29T01:01:40;6.60;;;4.50;;
6017;SDS011;3037;51.068;13.780;2023-05-29T01:04:07;6.30;;;5.20;;
6017;SDS011;3037;51.068;13.780;2023-05-29T01:06:37;7.93;;;4.50;;
6017;SDS011;3037;51.068;13.780;2023-05-29T01:09:04;9.70;;;5.70;;
6017;SDS011;3037;51.068;13.780;2023-05-29T01:11:41;6.10;;;5.50;;
6017;SDS011;3037;51.068;13.780;2023-05-29T01:14:33;5.90;;;5.30;;
6017;SDS011;3037;51.068;13.780;2023-05-29T01:17:11;7.17;;;5.00;;
6017;SDS011;3037;51.068;13.780;2023-05-29T01:25:48;6.10;;;4.47;;
6017;SDS011;3037;51.068;13.780;2023-05-29T01:28:40;5.60;;;5.00;;
6017;SDS011;3037;51.068;13.780;2023-05-29T01:31:09;12.50;;;5.23;;
6017;SDS011;3037;51.068;13.780;2023-05-29T01:33:39;5.93;;;5.30;;
6017;SDS011;3037;51.068;13.780;2023-05-29T01:36:06;7.17;;;4.90;;
6017;SDS011;3037;51.068;13.780;2023-05-29T01:38:33;8.50;;;4.70;;
6017;SDS011;3037;51.068;13.780;2023-05-29T01:40:58;8.17;;;4.57;;
6017;SDS011;3037;51.068;13.780;2023-05-29T01:43:24;8.40;;;4.37;;
6017;SDS011;3037;51.068;13.780;2023-05-29T01:45:51;7.77;;;5.20;;
6017;SDS011;3037;51.068;13.780;2023-05-29T01:48:17;4.30;;;3.90;;
6017;SDS011;3037;51.068;13.780;2023-05-29T01:50:42;5.43;;;4.83;;
6017;SDS011;3037;51.068;13.780;2023-05-29T01:53:10;5.17;;;4.73;;
6017;SDS011;3037;51.068;13.780;2023-05-29T01:55:35;6.50;;;4.57;;
6017;SDS011;3037;51.068;13.780;2023-05-29T01:58:01;5.40;;;4.40;;
6017;SDS011;3037;51.068;13.780;2023-05-29T02:00:27;8.50;;;5.10;;
6017;SDS011;3037;51.068;13.780;2023-05-29T02:02:54;6.23;;;4.53;;
6017;SDS011;3037;51.068;13.780;2023-05-29T02:05:20;4.97;;;4.47;;
6017;SDS011;3037;51.068;13.780;2023-05-29T02:07:46;5.60;;;4.97;;
6017;SDS011;3037;51.068;13.780;2023-05-29T02:10:11;10.67;;;5.10;;
6017;SDS011;3037;51.068;13.780;2023-05-29T02:12:37;8.53;;;4.73;;
6017;SDS011;3037;51.068;13.780;2023-05-29T02:15:02;5.60;;;5.10;;
6017;SDS011;3037;51.068;13.780;2023-05-29T02:17:28;13.50;;;4.93;;
6017;SDS011;3037;51.068;13.780;2023-05-29T02:19:54;9.23;;;5.23;;
6017;SDS011;3037;51.068;13.780;2023-05-29T02:22:19;6.60;;;4.90;;
6017;SDS011;3037;51.068;13.780;2023-05-29T02:24:45;5.10;;;4.60;;
6017;SDS011;3037;51.068;13.780;2023-05-29T02:27:10;4.50;;;4.10;;
6017;SDS011;3037;51.068;13.780;2023-05-29T02:29:36;7.53;;;5.17;;
6017;SDS011;3037;51.068;13.780;2023-05-29T02:32:01;10.83;;;4.73;;
6017;SDS011;3037;51.068;13.780;2023-05-29T02:34:27;6.13;;;4.70;;
6017;SDS011;3037;51.068;13.780;2023-05-29T02:36:54;5.80;;;5.10;;
6017;SDS011;3037;51.068;13.780;2023-05-29T02:39:19;4.63;;;4.23;;
6017;SDS011;3037;51.068;13.780;2023-05-29T02:41:45;7.40;;;4.97;;
6017;SDS011;3037;51.068;13.780;2023-05-29T02:44:11;6.27;;;4.57;;
6017;SDS011;3037;51.068;13.780;2023-05-29T02:46:36;4.43;;;4.00;;
6017;SDS011;3037;51.068;13.780;2023-05-29T02:49:02;7.00;;;4.40;;
6017;SDS011;3037;51.068;13.780;2023-05-29T02:51:28;4.50;;;4.10;;
6017;SDS011;3037;51.068;13.780;2023-05-29T02:53:53;9.20;;;5.07;;
6017;SDS011;3037;51.068;13.780;2023-05-29T02:56:19;8.20;;;5.40;;
6017;SDS011;3037;51.068;13.780;2023-05-29T02:58:48;6.80;;;5.00;;
6017;SDS011;3037;51.068;13.780;2023-05-29T03:01:14;5.00;;;4.27;;
6017;SDS011;3037;51.068;13.780;2023-05-29T03:03:40;6.73;;;4.70;;
6017;SDS011;3037;51.068;13.780;2023-05-29T03:06:05;7.90;;;4.73;;
6017;SDS011;3037;51.068;13.780;2023-05-29T03:08:31;5.20;;;4.53;;
6017;SDS011;3037;51.068;13.780;2023-05-29T03:10:58;5.80;;;4.27;;
6017;SDS011;3037;51.068;13.780;2023-05-29T03:13:24;4.60;;;4.23;;
6017;SDS011;3037;51.068;13.780;2023-05-29T03:15:49;4.17;;;3.77;;
6017;SDS011;3037;51.068;13.780;2023-05-29T03:18:16;4.87;;;4.47;;
6017;SDS011;3037;51.068;13.780;2023-05-29T03:20:41;6.43;;;4.80;;
6017;SDS011;3037;51.068;13.780;2023-05-29T03:23:06;4.33;;;4.00;;
6017;SDS011;3037;51.068;13.780;2023-05-29T03:25:32;4.80;;;4.10;;
6017;SDS011;3037;51.068;13.780;2023-05-29T03:27:57;4.37;;;3.93;;
6017;SDS011;3037;51.068;13.780;2023-05-29T03:30:23;4.43;;;3.97;;
6017;SDS011;3037;51.068;13.780;2023-05-29T03:32:48;6.90;;;3.80;;
6017;SDS011;3037;51.068;13.780;2023-05-29T03:35:14;4.53;;;4.10;;
6017;SDS011;3037;51.068;13.780;2023-05-29T03:37:40;4.67;;;4.13;;
6017;SDS011;3037;51.068;13.780;2023-05-29T03:40:05;4.97;;;4.47;;
6017;SDS011;3037;51.068;13.780;2023-05-29T03:42:31;5.00;;;4.50;;
6017;SDS011;3037;51.068;13.780;2023-05-29T03:44:58;7.17;;;5.27;;
6017;SDS011;3037;51.068;13.780;2023-05-29T03:47:24;6.03;;;4.43;;
6017;SDS011;3037;51.068;13.780;2023-05-29T03:49:49;5.33;;;4.67;;
6017;SDS011;3037;51.068;13.780;2023-05-29T03:52:15;9.57;;;5.33;;
6017;SDS011;3037;51.068;13.780;2023-05-29T03:54:40;4.30;;;4.00;;
6017;SDS011;3037;51.068;13.780;2023-05-29T03:57:06;5.33;;;4.70;;
6017;SDS011;3037;51.068;13.780;2023-05-29T03:59:31;5.10;;;4.67;;
6017;SDS011;3037;51.068;13.780;2023-05-29T04:01:57;5.20;;;4.13;;
6017;SDS011;3037;51.068;13.780;2023-05-29T04:04:23;6.30;;;5.47;;
6017;SDS011;3037;51.068;13.780;2023-05-29T04:06:48;5.27;;;4.77;;
6017;SDS011;3037;51.068;13.780;2023-05-29T04:09:14;5.97;;;5.17;;
6017;SDS011;3037;51.068;13.780;2023-05-29T04:11:40;5.80;;;5.20;;
6017;SDS011;3037;51.068;13.780;2023-05-29T04:14:06;8.23;;;5.70;;
6017;SDS011;3037;51.068;13.780;2023-05-29T04:16:32;5.77;;;5.17;;
6017;SDS011;3037;51.068;13.780;2023-05-29T04:18:57;6.10;;;5.50;;
6017;SDS011;3037;51.068;13.780;2023-05-29T04:21:23;5.27;;;4.80;;
6017;SDS011;3037;51.068;13.780;2023-05-29T04:23:48;7.03;;;5.27;;
6017;SDS011;3037;51.068;13.780;2023-05-29T04:26:14;9.20;;;5.03;;
6017;SDS011;3037;51.068;13.780;2023-05-29T04:28:39;9.90;;;5.43;;
6017;SDS011;3037;51.068;13.780;2023-05-29T04:31:05;6.80;;;5.13;;
6017;SDS011;3037;51.068;13.780;2023-05-29T04:33:31;7.00;;;5.10;;
6017;SDS011;3037;51.068;13.780;2023-05-29T04:35:57;5.77;;;5.27;;
6017;SDS011;3037;51.068;13.780;2023-05-29T04:38:26;5.30;;;4.80;;
6017;SDS011;3037;51.068;13.780;2023-05-29T04:40:52;8.40;;;5.40;;
6017;SDS011;3037;51.068;13.780;2023-05-29T04:43:22;5.10;;;4.50;;
6017;SDS011;3037;51.068;13.780;2023-05-29T04:45:51;5.67;;;5.00;;
6017;SDS011;3037;51.068;13.780;2023-05-29T04:48:17;5.20;;;4.57;;
6017;SDS011;3037;51.068;13.780;2023-05-29T04:50:43;9.90;;;5.23;;
6017;SDS011;3037;51.068;13.780;2023-05-29T04:53:09;8.00;;;4.93;;
6017;SDS011;3037;51.068;13.780;2023-05-29T04:55:35;7.43;;;6.00;;
6017;SDS011;3037;51.068;13.780;2023-05-29T04:58:01;7.53;;;4.90;;
6017;SDS011;3037;51.068;13.780;2023-05-29T05:00:27;6.13;;;4.93;;
6017;SDS011;3037;51.068;13.780;2023-05-29T05:02:52;6.60;;;4.87;;
6017;SDS011;3037;51.068;13.780;2023-05-29T05:05:18;5.53;;;5.03;;
6017;SDS011;3037;51.068;13.780;2023-05-29T05:07:44;6.97;;;4.80;;
6017;SDS011;3037;51.068;13.780;2023-05-29T05:10:10;6.80;;;5.17;;
6017;SDS011;3037;51.068;13.780;2023-05-29T05:12:36;12.00;;;4.70;;
6017;SDS011;3037;51.068;13.780;2023-05-29T05:15:02;5.20;;;4.80;;
6017;SDS011;3037;51.068;13.780;2023-05-29T05:17:28;6.40;;;5.00;;
6017;SDS011;3037;51.068;13.780;2023-05-29T05:19:53;7.50;;;5.00;;
6017;SDS011;3037;51.068;13.780;2023-05-29T05:22:19;11.10;;;4.20;;
6017;SDS011;3037;51.068;13.780;2023-05-29T05:24:45;8.60;;;5.30;;
6017;SDS011;3037;51.068;13.780;2023-05-29T05:27:10;6.47;;;5.10;;
6017;SDS011;3037;51.068;13.780;2023-05-29T05:29:36;5.37;;;4.50;;
6017;SDS011;3037;51.068;13.780;2023-05-29T05:32:02;7.13;;;5.10;;
6017;SDS011;3037;51.068;13.780;2023-05-29T05:34:27;11.73;;;5.30;;
6017;SDS011;3037;51.068;13.780;2023-05-29T05:36:53;9.17;;;4.90;;
6017;SDS011;3037;51.068;13.780;2023-05-29T05:39:18;7.90;;;4.70;;
6017;SDS011;3037;51.068;13.780;2023-05-29T05:41:44;5.20;;;4.70;;
6017;SDS011;3037;51.068;13.780;2023-05-29T05:44:09;7.43;;;4.87;;
6017;SDS011;3037;51.068;13.780;2023-05-29T05:46:35;7.00;;;4.93;;
6017;SDS011;3037;51.068;13.780;2023-05-29T05:49:00;8.00;;;5.67;;
6017;SDS011;3037;51.068;13.780;2023-05-29T05:51:26;7.03;;;5.10;;
6017;SDS011;3037;51.068;13.780;2023-05-29T05:53:52;6.57;;;5.10;;
6017;SDS011;3037;51.068;13.780;2023-05-29T05:56:18;7.30;;;4.50;;
6017;SDS011;3037;51.068;13.780;2023-05-29T05:58:43;8.13;;;3.97;;
6017;SDS011;3037;51.068;13.780;2023-05-29T06:01:09;7.90;;;5.90;;
6017;SDS011;3037;51.068;13.780;2023-05-29T06:03:35;10.13;;;4.50;;
6017;SDS011;3037;51.068;13.780;2023-05-29T06:06:02;6.97;;;4.63;;
6017;SDS011;3037;51.068;13.780;2023-05-29T06:08:28;5.07;;;4.50;;
6017;SDS011;3037;51.068;13.780;2023-05-29T06:10:54;8.27;;;5.30;;
6017;SDS011;3037;51.068;13.780;2023-05-29T06:13:20;11.90;;;6.20;;
6017;SDS011;3037;51.068;13.780;2023-05-29T06:15:45;9.47;;;4.77;;
6017;SDS011;3037;51.068;13.780;2023-05-29T06:18:11;7.60;;;4.77;;
6017;SDS011;3037;51.068;13.780;2023-05-29T06:20:36;4.87;;;4.47;;
6017;SDS011;3037;51.068;13.780;2023-05-29T06:23:02;8.33;;;5.10;;
6017;SDS011;3037;51.068;13.780;2023-05-29T06:25:28;6.70;;;5.30;;
6017;SDS011;3037;51.068;13.780;2023-05-29T06:28:01;5.70;;;5.20;;
6017;SDS011;3037;51.068;13.780;2023-05-29T06:30:27;5.20;;;4.77;;
6017;SDS011;3037;51.068;13.780;2023-05-29T06:32:53;7.13;;;5.17;;
6017;SDS011;3037;51.068;13.780;2023-05-29T06:35:19;4.80;;;4.40;;
6017;SDS011;3037;51.068;13.780;2023-05-29T06:37:45;5.67;;;5.10;;
6017;SDS011;3037;51.068;13.780;2023-05-29T06:40:11;5.70;;;5.20;;
6017;SDS011;3037;51.068;13.780;2023-05-29T06:42:37;7.77;;;5.50;;
6017;SDS011;3037;51.068;13.780;2023-05-29T06:45:03;8.50;;;4.60;;
6017;SDS011;3037;51.068;13.780;2023-05-29T06:47:29;6.93;;;4.70;;
6017;SDS011;3037;51.068;13.780;2023-05-29T06:49:55;7.30;;;5.20;;
6017;SDS011;3037;51.068;13.780;2023-05-29T06:52:20;9.67;;;5.60;;
6017;SDS011;3037;51.068;13.780;2023-05-29T06:54:46;9.43;;;5.90;;
6017;SDS011;3037;51.068;13.780;2023-05-29T06:57:11;7.70;;;5.97;;
6017;SDS011;3037;51.068;13.780;2023-05-29T06:59:37;5.70;;;5.13;;
6017;SDS011;3037;51.068;13.780;2023-05-29T07:02:03;6.40;;;5.80;;
6017;SDS011;3037;51.068;13.780;2023-05-29T07:04:28;6.87;;;5.60;;
6017;SDS011;3037;51.068;13.780;2023-05-29T07:06:54;5.53;;;5.03;;
6017;SDS011;3037;51.068;13.780;2023-05-29T07:09:20;5.93;;;4.73;;
6017;SDS011;3037;51.068;13.780;2023-05-29T07:11:45;9.20;;;5.40;;
6017;SDS011;3037;51.068;13.780;2023-05-29T07:14:11;5.30;;;4.30;;
6017;SDS011;3037;51.068;13.780;2023-05-29T07:16:37;5.23;;;4.10;;
6017;SDS011;3037;51.068;13.780;2023-05-29T07:19:03;5.40;;;4.27;;
6017;SDS011;3037;51.068;13.780;2023-05-29T07:21:28;7.20;;;4.73;;
6017;SDS011;3037;51.068;13.780;2023-05-29T07:23:53;3.63;;;3.33;;
6017;SDS011;3037;51.068;13.780;2023-05-29T07:26:19;6.27;;;4.17;;
6017;SDS011;3037;51.068;13.780;2023-05-29T07:28:46;6.53;;;4.77;;
6017;SDS011;3037;51.068;13.780;2023-05-29T07:31:12;4.27;;;3.97;;
6017;SDS011;3037;51.068;13.780;2023-05-29T07:33:39;10.50;;;4.80;;
6017;SDS011;3037;51.068;13.780;2023-05-29T07:36:06;7.53;;;4.90;;
6017;SDS011;3037;51.068;13.780;2023-05-29T07:38:32;7.30;;;4.57;;
6017;SDS011;3037;51.068;13.780;2023-05-29T07:40:58;5.20;;;4.50;;
6017;SDS011;3037;51.068;13.780;2023-05-29T07:43:23;7.80;;;4.80;;
6017;SDS011;3037;51.068;13.780;2023-05-29T07:45:48;7.37;;;4.90;;
6017;SDS011;3037;51.068;13.780;2023-05-29T07:48:14;9.13;;;4.30;;
6017;SDS011;3037;51.068;13.780;2023-05-29T07:50:39;7.60;;;4.70;;
6017;SDS011;3037;51.068;13.780;2023-05-29T07:53:05;5.10;;;4.00;;
6017;SDS011;3037;51.068;13.780;2023-05-29T07:55:31;5.10;;;4.70;;
6017;SDS011;3037;51.068;13.780;2023-05-29T07:57:57;4.53;;;4.23;;
6017;SDS011;3037;51.068;13.780;2023-05-29T08:00:22;4.60;;;4.30;;
6017;SDS011;3037;51.068;13.780;2023-05-29T08:02:48;4.93;;;4.33;;
6017;SDS011;3037;51.068;13.780;2023-05-29T08:05:13;6.90;;;4.53;;
6017;SDS011;3037;51.068;13.780;2023-05-29T08:07:40;11.40;;;4.73;;
6017;SDS011;3037;51.068;13.780;2023-05-29T08:10:06;4.10;;;3.80;;
6017;SDS011;3037;51.068;13.780;2023-05-29T08:12:32;4.23;;;3.90;;
6017;SDS011;3037;51.068;13.780;2023-05-29T08:15:00;4.60;;;4.20;;
6017;SDS011;3037;51.068;13.780;2023-05-29T08:17:25;6.07;;;3.60;;
6017;SDS011;3037;51.068;13.780;2023-05-29T08:19:51;4.73;;;4.17;;
6017;SDS011;3037;51.068;13.780;2023-05-29T08:22:16;5.57;;;3.80;;
6017;SDS011;3037;51.068;13.780;2023-05-29T08:24:42;8.63;;;4.00;;
6017;SDS011;3037;51.068;13.780;2023-05-29T08:27:07;4.00;;;3.70;;
6017;SDS011;3037;51.068;13.780;2023-05-29T08:29:33;4.57;;;4.17;;
6017;SDS011;3037;51.068;13.780;2023-05-29T08:31:58;4.27;;;3.87;;
6017;SDS011;3037;51.068;13.780;2023-05-29T08:34:24;8.53;;;3.50;;
6017;SDS011;3037;51.068;13.780;2023-05-29T08:36:49;3.07;;;2.87;;
6017;SDS011;3037;51.068;13.780;2023-05-29T08:39:16;4.63;;;3.10;;
6017;SDS011;3037;51.068;13.780;2023-05-29T08:41:56;4.83;;;3.40;;
6017;SDS011;3037;51.068;13.780;2023-05-29T08:44:27;3.73;;;3.40;;
6017;SDS011;3037;51.068;13.780;2023-05-29T08:46:55;6.70;;;3.40;;
6017;SDS011;3037;51.068;13.780;2023-05-29T08:49:24;15.23;;;3.90;;
6017;SDS011;3037;51.068;13.780;2023-05-29T08:51:57;4.83;;;4.20;;
6017;SDS011;3037;51.068;13.780;2023-05-29T08:54:31;6.60;;;4.07;;
6017;SDS011;3037;51.068;13.780;2023-05-29T08:56:57;18.90;;;9.50;;
6017;SDS011;3037;51.068;13.780;2023-05-29T08:59:25;17.13;;;7.40;;
6017;SDS011;3037;51.068;13.780;2023-05-29T09:01:51;7.30;;;4.90;;
6017;SDS011;3037;51.068;13.780;2023-05-29T09:04:17;21.43;;;12.13;;
6017;SDS011;3037;51.068;13.780;2023-05-29T09:06:43;20.33;;;10.83;;
6017;SDS011;3037;51.068;13.780;2023-05-29T09:09:09;6.93;;;6.10;;
6017;SDS011;3037;51.068;13.780;2023-05-29T09:11:35;12.50;;;7.87;;
6017;SDS011;3037;51.068;13.780;2023-05-29T09:14:01;7.33;;;5.37;;
6017;SDS011;3037;51.068;13.780;2023-05-29T09:16:28;10.50;;;5.20;;
6017;SDS011;3037;51.068;13.780;2023-05-29T09:19:03;9.60;;;6.63;;
6017;SDS011;3037;51.068;13.780;2023-05-29T09:21:31;10.37;;;4.90;;
6017;SDS011;3037;51.068;13.780;2023-05-29T09:24:05;12.83;;;9.93;;
6017;SDS011;3037;51.068;13.780;2023-05-29T09:26:31;3.60;;;3.27;;
6017;SDS011;3037;51.068;13.780;2023-05-29T09:28:57;4.07;;;3.77;;
6017;SDS011;3037;51.068;13.780;2023-05-29T09:31:22;4.37;;;4.07;;
6017;SDS011;3037;51.068;13.780;2023-05-29T09:33:49;6.40;;;4.20;;
6017;SDS011;3037;51.068;13.780;2023-05-29T09:36:21;2.60;;;2.40;;
6017;SDS011;3037;51.068;13.780;2023-05-29T09:38:47;3.30;;;3.00;;
6017;SDS011;3037;51.068;13.780;2023-05-29T09:41:13;4.37;;;3.03;;
6017;SDS011;3037;51.068;13.780;2023-05-29T09:43:47;7.63;;;3.13;;
6017;SDS011;3037;51.068;13.780;2023-05-29T09:46:14;9.37;;;2.97;;
6017;SDS011;3037;51.068;13.780;2023-05-29T09:48:42;3.10;;;2.87;;
6017;SDS011;3037;51.068;13.780;2023-05-29T09:51:18;4.57;;;2.97;;
6017;SDS011;3037;51.068;13.780;2023-05-29T09:53:45;3.03;;;2.80;;
6017;SDS011;3037;51.068;13.780;2023-05-29T09:56:11;3.30;;;3.00;;
6017;SDS011;3037;51.068;13.780;2023-05-29T09:58:40;9.03;;;3.23;;
6017;SDS011;3037;51.068;13.780;2023-05-29T10:01:11;3.23;;;2.00;;
6017;SDS011;3037;51.068;13.780;2023-05-29T10:03:37;3.23;;;2.93;;
6017;SDS011;3037;51.068;13.780;2023-05-29T10:06:03;3.60;;;3.10;;
6017;SDS011;3037;51.068;13.780;2023-05-29T10:08:31;3.37;;;2.87;;
6017;SDS011;3037;51.068;13.780;2023-05-29T10:11:01;15.97;;;3.50;;
6017;SDS011;3037;51.068;13.780;2023-05-29T10:13:30;4.50;;;2.63;;
6017;SDS011;3037;51.068;13.780;2023-05-29T10:16:00;2.60;;;2.43;;
6017;SDS011;3037;51.068;13.780;2023-05-29T10:18:37;4.73;;;3.53;;
6017;SDS011;3037;51.068;13.780;2023-05-29T10:21:07;9.53;;;3.20;;
6017;SDS011;3037;51.068;13.780;2023-05-29T10:23:36;3.10;;;2.80;;
6017;SDS011;3037;51.068;13.780;2023-05-29T10:26:12;4.33;;;3.17;;
6017;SDS011;3037;51.068;13.780;2023-05-29T10:28:40;7.57;;;3.73;;
6017;SDS011;3037;51.068;13.780;2023-05-29T10:31:14;7.63;;;3.30;;
6017;SDS011;3037;51.068;13.780;2023-05-29T10:34:09;3.53;;;3.10;;
6017;SDS011;3037;51.068;13.780;2023-05-29T10:36:59;3.10;;;2.80;;
6017;SDS011;3037;51.068;13.780;2023-05-29T10:39:31;6.03;;;3.20;;
6017;SDS011;3037;51.068;13.780;2023-05-29T10:41:57;6.50;;;2.93;;
6017;SDS011;3037;51.068;13.780;2023-05-29T10:49:23;4.60;;;3.33;;
6017;SDS011;3037;51.068;13.780;2023-05-29T10:51:49;5.00;;;4.40;;
6017;SDS011;3037;51.068;13.780;2023-05-29T10:54:14;6.40;;;4.50;;
6017;SDS011;3037;51.068;13.780;2023-05-29T10:56:44;11.17;;;4.00;;
6017;SDS011;3037;51.068;13.780;2023-05-29T10:59:17;7.37;;;4.37;;
6017;SDS011;3037;51.068;13.780;2023-05-29T11:01:43;8.23;;;4.70;;
6017;SDS011;3037;51.068;13.780;2023-05-29T11:06:45;3.33;;;3.00;;
6017;SDS011;3037;51.068;13.780;2023-05-29T11:12:10;5.27;;;3.50;;
6017;SDS011;3037;51.068;13.780;2023-05-29T11:15:02;3.10;;;2.83;;
6017;SDS011;3037;51.068;13.780;2023-05-29T11:20:03;2.97;;;2.70;;
6017;SDS011;3037;51.068;13.780;2023-05-29T11:25:07;4.40;;;3.33;;
6017;SDS011;3037;51.068;13.780;2023-05-29T11:27:33;7.90;;;3.43;;
6017;SDS011;3037;51.068;13.780;2023-05-29T11:29:59;4.33;;;3.80;;
6017;SDS011;3037;51.068;13.780;2023-05-29T11:32:25;3.83;;;3.50;;
6017;SDS011;3037;51.068;13.780;2023-05-29T11:34:54;3.43;;;3.10;;
6017;SDS011;3037;51.068;13.780;2023-05-29T11:37:24;4.70;;;3.23;;
6017;SDS011;3037;51.068;13.780;2023-05-29T11:39:49;4.70;;;3.20;;
6017;SDS011;3037;51.068;13.780;2023-05-29T11:42:16;5.37;;;3.50;;
6017;SDS011;3037;51.068;13.780;2023-05-29T11:44:41;4.10;;;2.50;;
6017;SDS011;3037;51.068;13.780;2023-05-29T11:47:07;5.13;;;3.10;;
6017;SDS011;3037;51.068;13.780;2023-05-29T11:49:34;4.30;;;3.67;;
6017;SDS011;3037;51.068;13.780;2023-05-29T11:52:07;5.67;;;3.73;;
6017;SDS011;3037;51.068;13.780;2023-05-29T11:54:34;3.67;;;3.37;;
6017;SDS011;3037;51.068;13.780;2023-05-29T11:57:00;4.50;;;3.47;;
6017;SDS011;3037;51.068;13.780;2023-05-29T11:59:30;6.40;;;3.90;;
6017;SDS011;3037;51.068;13.780;2023-05-29T12:01:56;5.00;;;3.40;;
6017;SDS011;3037;51.068;13.780;2023-05-29T12:04:22;9.60;;;3.43;;
6017;SDS011;3037;51.068;13.780;2023-05-29T12:06:47;7.30;;;3.43;;
6017;SDS011;3037;51.068;13.780;2023-05-29T12:11:51;4.10;;;3.70;;
6017;SDS011;3037;51.068;13.780;2023-05-29T12:14:17;13.60;;;3.10;;
6017;SDS011;3037;51.068;13.780;2023-05-29T12:16:42;4.57;;;3.23;;
6017;SDS011;3037;51.068;13.780;2023-05-29T12:19:08;5.30;;;3.30;;
6017;SDS011;3037;51.068;13.780;2023-05-29T12:21:33;10.00;;;3.37;;
6017;SDS011;3037;51.068;13.780;2023-05-29T12:23:59;3.70;;;3.07;;
6017;SDS011;3037;51.068;13.780;2023-05-29T12:26:25;3.90;;;3.37;;
6017;SDS011;3037;51.068;13.780;2023-05-29T12:28:51;4.00;;;3.70;;
6017;SDS011;3037;51.068;13.780;2023-05-29T12:31:26;8.57;;;3.60;;
6017;SDS011;3037;51.068;13.780;2023-05-29T12:34:29;4.13;;;3.30;;
6017;SDS011;3037;51.068;13.780;2023-05-29T12:36:47;3.60;;;3.30;;
6017;SDS011;3037;51.068;13.780;2023-05-29T12:39:13;3.03;;;2.83;;
6017;SDS011;3037;51.068;13.780;2023-05-29T12:41:39;4.73;;;3.60;;
6017;SDS011;3037;51.068;13.780;2023-05-29T12:44:06;8.80;;;3.13;;
6017;SDS011;3037;51.068;13.780;2023-05-29T12:46:35;3.80;;;3.33;;
6017;SDS011;3037;51.068;13.780;2023-05-29T12:49:11;7.07;;;3.80;;
6017;SDS011;3037;51.068;13.780;2023-05-29T12:51:39;4.73;;;3.30;;
6017;SDS011;3037;51.068;13.780;2023-05-29T12:54:06;10.67;;;3.37;;
6017;SDS011;3037;51.068;13.780;2023-05-29T12:56:32;4.23;;;3.33;;
6017;SDS011;3037;51.068;13.780;2023-05-29T12:58:57;6.17;;;3.30;;
6017;SDS011;3037;51.068;13.780;2023-05-29T13:01:23;4.53;;;3.60;;
6017;SDS011;3037;51.068;13.780;2023-05-29T13:03:49;3.13;;;2.80;;
6017;SDS011;3037;51.068;13.780;2023-05-29T13:06:15;3.60;;;2.93;;
6017;SDS011;3037;51.068;13.780;2023-05-29T13:08:40;3.90;;;3.50;;
6017;SDS011;3037;51.068;13.780;2023-05-29T13:11:06;4.47;;;3.63;;
6017;SDS011;3037;51.068;13.780;2023-05-29T13:13:32;5.30;;;2.77;;
6017;SDS011;3037;51.068;13.780;2023-05-29T13:15:57;9.53;;;3.80;;
6017;SDS011;3037;51.068;13.780;2023-05-29T13:18:23;4.13;;;3.40;;
6017;SDS011;3037;51.068;13.780;2023-05-29T13:20:48;4.60;;;3.17;;
6017;SDS011;3037;51.068;13.780;2023-05-29T13:23:14;4.07;;;3.37;;
6017;SDS011;3037;51.068;13.780;2023-05-29T13:25:39;6.90;;;3.60;;
6017;SDS011;3037;51.068;13.780;2023-05-29T13:28:05;7.43;;;3.47;;
6017;SDS011;3037;51.068;13.780;2023-05-29T13:30:30;3.53;;;3.03;;
6017;SDS011;3037;51.068;13.780;2023-05-29T13:32:56;3.27;;;2.97;;
6017;SDS011;3037;51.068;13.780;2023-05-29T13:35:21;6.03;;;3.30;;
6017;SDS011;3037;51.068;13.780;2023-05-29T13:37:47;3.60;;;3.30;;
6017;SDS011;3037;51.068;13.780;2023-05-29T13:40:12;5.03;;;3.77;;
6017;SDS011;3037;51.068;13.780;2023-05-29T13:42:41;6.23;;;3.80;;
6017;SDS011;3037;51.068;13.780;2023-05-29T13:45:07;4.30;;;3.90;;
6017;SDS011;3037;51.068;13.780;2023-05-29T13:47:33;6.80;;;4.03;;
6017;SDS011;3037;51.068;13.780;2023-05-29T13:49:59;5.97;;;3.40;;
6017;SDS011;3037;51.068;13.780;2023-05-29T13:52:25;4.27;;;3.50;;
6017;SDS011;3037;51.068;13.780;2023-05-29T13:54:51;5.80;;;3.73;;
6017;SDS011;3037;51.068;13.780;2023-05-29T13:57:16;7.07;;;3.93;;
6017;SDS011;3037;51.068;13.780;2023-05-29T13:59:42;6.07;;;4.07;;
6017;SDS011;3037;51.068;13.780;2023-05-29T14:02:07;4.30;;;3.90;;
6017;SDS011;3037;51.068;13.780;2023-05-29T14:04:33;5.43;;;3.47;;
6017;SDS011;3037;51.068;13.780;2023-05-29T14:06:59;9.50;;;3.90;;
6017;SDS011;3037;51.068;13.780;2023-05-29T14:09:24;5.77;;;3.77;;
6017;SDS011;3037;51.068;13.780;2023-05-29T14:11:59;7.13;;;3.60;;
6017;SDS011;3037;51.068;13.780;2023-05-29T14:14:25;4.90;;;3.60;;
6017;SDS011;3037;51.068;13.780;2023-05-29T14:16:51;13.53;;;4.13;;
6017;SDS011;3037;51.068;13.780;2023-05-29T14:19:18;7.23;;;6.07;;
6017;SDS011;3037;51.068;13.780;2023-05-29T14:21:44;7.20;;;4.13;;
6017;SDS011;3037;51.068;13.780;2023-05-29T14:24:11;4.77;;;4.30;;
6017;SDS011;3037;51.068;13.780;2023-05-29T14:26:38;4.50;;;3.53;;
6017;SDS011;3037;51.068;13.780;2023-05-29T14:29:03;7.70;;;4.17;;
6017;SDS011;3037;51.068;13.780;2023-05-29T14:31:29;5.07;;;3.60;;
6017;SDS011;3037;51.068;13.780;2023-05-29T14:33:55;6.53;;;4.40;;
6017;SDS011;3037;51.068;13.780;2023-05-29T14:36:21;9.03;;;4.20;;
6017;SDS011;3037;51.068;13.780;2023-05-29T14:38:46;3.53;;;3.30;;
6017;SDS011;3037;51.068;13.780;2023-05-29T14:41:14;5.50;;;3.97;;
6017;SDS011;3037;51.068;13.780;2023-05-29T14:43:40;3.93;;;3.20;;
6017;SDS011;3037;51.068;13.780;2023-05-29T14:46:07;13.73;;;6.67;;
6017;SDS011;3037;51.068;13.780;2023-05-29T14:48:32;6.70;;;4.53;;
6017;SDS011;3037;51.068;13.780;2023-05-29T14:50:58;4.70;;;4.10;;
6017;SDS011;3037;51.068;13.780;2023-05-29T14:53:23;5.33;;;3.80;;
6017;SDS011;3037;51.068;13.780;2023-05-29T14:55:49;12.73;;;6.17;;
6017;SDS011;3037;51.068;13.780;2023-05-29T14:58:14;6.90;;;5.23;;
6017;SDS011;3037;51.068;13.780;2023-05-29T15:00:40;9.03;;;5.10;;
6017;SDS011;3037;51.068;13.780;2023-05-29T15:03:05;7.77;;;6.10;;
6017;SDS011;3037;51.068;13.780;2023-05-29T15:05:31;6.50;;;4.40;;
6017;SDS011;3037;51.068;13.780;2023-05-29T15:07:56;4.63;;;4.20;;
6017;SDS011;3037;51.068;13.780;2023-05-29T15:10:25;3.43;;;3.13;;
6017;SDS011;3037;51.068;13.780;2023-05-29T15:12:52;4.43;;;3.83;;
6017;SDS011;3037;51.068;13.780;2023-05-29T15:15:25;4.47;;;3.70;;
6017;SDS011;3037;51.068;13.780;2023-05-29T15:17:51;12.30;;;3.70;;
6017;SDS011;3037;51.068;13.780;2023-05-29T15:20:20;6.47;;;3.87;;
6017;SDS011;3037;51.068;13.780;2023-05-29T15:22:47;4.60;;;3.67;;